EST,Max TemperatureF,Mean TemperatureF,Min TemperatureF,Max Dew PointF,MeanDew PointF,Min DewpointF,Max Humidity, Mean Humidity, Min Humidity, Max Sea Level PressureIn, Mean Sea Level PressureIn, Min Sea Level PressureIn, Max VisibilityMiles, Mean VisibilityMiles, Min VisibilityMiles, Max Wind SpeedMPH, Mean Wind SpeedMPH, Max Gust SpeedMPH,PrecipitationIn, CloudCover, Events, WindDirDegrees
2010-11-1,37,33,30,31,28,23,92,80,72,30.44,30.30,30.14,10,9,2,14,10,21,0.01,8,Snow,308
2010-11-2,39,31,25,31,26,22,89,77,59,30.50,30.45,30.40,10,10,10,10,6,,0.00,6,,319
2010-11-3,45,32,19,29,21,17,96,83,51,30.40,30.24,29.99,10,5,0,9,1,,0.00,1,Fog,177
2010-11-4,41,34,28,37,34,24,100,91,73,30.00,29.79,29.54,10,6,2,12,3,17,0.60,7,Rain,278
2010-11-5,42,40,36,39,37,32,100,92,73,29.83,29.49,29.39,10,6,2,8,2,18,0.37,8,Rain,325
2010-11-6,39,36,33,33,29,27,87,79,73,30.36,30.15,29.87,10,10,8,10,6,,0.01,7,Rain,328
2010-11-7,36,32,28,27,25,23,82,76,65,30.40,30.30,30.07,10,10,10,8,5,,0.00,5,,6
2010-11-8,33,32,30,32,28,21,100,91,69,29.95,29.78,29.71,10,7,2,15,10,26,0.31,8,Rain-Snow,329
2010-11-9,41,36,32,38,35,30,100,94,86,30.14,30.02,29.87,10,8,2,9,6,,0.01,8,Rain,324
2010-11-10,46,39,28,36,30,24,87,71,48,30.44,30.25,30.11,10,8,0,13,7,,0.00,3,,354
2010-11-11,52,38,23,27,24,20,89,70,31,30.61,30.54,30.44,10,10,10,4,1,,0.00,0,,320
2010-11-12,57,40,23,30,24,20,92,68,26,30.58,30.51,30.41,10,10,10,4,0,,0.00,0,,50
2010-11-13,59,42,24,28,23,13,85,65,17,30.40,30.29,30.21,10,10,9,4,0,,0.00,0,,340
2010-11-14,54,39,24,36,29,20,88,69,38,30.23,30.15,30.07,10,10,10,16,4,22,0.00,1,,173
2010-11-15,46,44,41,39,37,35,93,79,71,30.12,30.08,30.04,10,10,10,14,8,17,0.00,8,Rain,183
2010-11-16,51,46,41,43,40,36,93,82,56,30.13,30.07,29.93,10,10,9,14,2,,0.07,8,Rain,146
2010-11-17,52,44,37,47,41,29,93,83,68,29.89,29.52,29.35,10,9,4,21,10,33,0.78,8,Rain,212
2010-11-18,41,36,32,31,27,23,87,68,55,30.07,29.96,29.70,10,10,7,21,10,31,0.00,8,Snow,307
2010-11-19,32,26,21,28,23,17,93,78,56,30.25,30.15,30.03,10,8,1,15,6,21,0.03,6,Snow,309
2010-11-20,43,35,26,30,21,13,70,59,40,30.38,30.08,29.90,10,10,10,23,9,39,0.00,6,,289
2010-11-21,30,26,21,17,13,10,75,61,51,30.62,30.52,30.36,10,10,10,10,6,20,0.00,3,,360
2010-11-22,39,34,30,38,34,17,100,91,59,30.47,30.17,30.05,10,5,0,14,5,18,0.14,8,Fog-Rain,184
2010-11-23,52,46,37,48,40,22,100,87,53,30.06,29.88,29.70,10,5,1,20,3,30,0.11,7,Rain,243
2010-11-24,37,30,23,27,13,2,75,51,31,30.25,30.08,29.89,10,10,7,24,15,43,0.01,4,Snow,310
2010-11-25,30,22,17,14,8,4,65,52,43,30.25,30.15,29.85,10,10,10,12,6,21,0.00,3,,12
2010-11-26,36,32,28,32,25,9,93,77,40,29.85,29.58,29.46,10,9,2,14,8,20,0.23,8,Rain-Snow,209
2010-11-27,30,24,19,25,19,10,93,72,55,30.03,29.63,29.46,10,6,0,23,12,32,0.05,7,Fog-Snow,253
2010-11-28,33,24,14,25,19,9,85,75,64,30.44,30.27,30.06,10,10,10,12,4,,0.00,7,,131
2010-11-29,39,31,23,26,24,20,92,78,57,30.59,30.54,30.45,10,10,10,7,1,,0.00,1,,159
2010-11-30,39,32,24,36,31,22,91,83,73,30.53,30.38,30.23,10,10,8,14,6,21,0.00,5,Rain,177